createdAt,value
2019-05-28T00:00:01.166Z,1002.12
2019-05-28T00:00:48.014Z,1002.09
2019-05-28T00:01:47.011Z,1002.07
2019-05-28T00:02:47.017Z,1002.06
2019-05-28T00:03:46.982Z,1002.06
2019-05-28T00:04:46.985Z,1002.01
2019-05-28T00:05:46.968Z,1002.01
2019-05-28T00:06:46.968Z,1001.97
2019-05-28T00:07:46.964Z,1001.96
2019-05-28T00:08:46.941Z,1001.98
2019-05-28T00:09:46.919Z,1001.96
2019-05-28T00:10:47.599Z,1001.97
2019-05-28T00:11:46.906Z,1001.98
2019-05-28T00:12:46.919Z,1001.96
2019-05-28T00:13:46.874Z,1001.96
2019-05-28T00:14:46.872Z,1001.95
2019-05-28T00:15:46.859Z,1001.92
2019-05-28T00:16:46.853Z,1002.02
2019-05-28T00:17:46.835Z,1001.90
2019-05-28T00:18:46.905Z,1001.95
2019-05-28T00:19:46.809Z,1001.91
2019-05-28T00:20:46.803Z,1001.92
2019-05-28T00:21:46.797Z,1001.94
2019-05-28T00:22:46.778Z,1001.91
2019-05-28T00:23:46.796Z,1001.89
2019-05-28T00:24:46.806Z,1001.87
2019-05-28T00:25:46.757Z,1001.90
2019-05-28T00:26:46.765Z,1001.89
2019-05-28T00:27:46.735Z,1001.88
2019-05-28T00:28:46.737Z,1001.87
2019-05-28T00:29:46.708Z,1001.92
2019-05-28T00:30:46.701Z,1001.90
2019-05-28T00:31:46.683Z,1001.87
2019-05-28T00:32:46.669Z,1001.86
2019-05-28T00:33:46.724Z,1001.88
2019-05-28T00:34:46.661Z,1001.90
2019-05-28T00:35:46.657Z,1001.88
2019-05-28T00:36:46.637Z,1001.86
2019-05-28T00:37:46.623Z,1001.90
2019-05-28T00:38:46.633Z,1001.93
2019-05-28T00:39:46.613Z,1001.91
2019-05-28T00:40:46.588Z,1001.93
2019-05-28T00:41:46.595Z,1001.92
2019-05-28T00:42:46.567Z,1001.89
2019-05-28T00:43:46.570Z,1001.86
2019-05-28T00:44:46.546Z,1001.85
2019-05-28T00:45:46.541Z,1001.81
2019-05-28T00:46:46.534Z,1001.81
2019-05-28T00:47:46.511Z,1001.80
2019-05-28T00:48:46.515Z,1001.76
2019-05-28T00:49:49.591Z,1001.82
2019-05-28T00:50:46.479Z,1001.74
2019-05-28T00:51:46.465Z,1001.72
2019-05-28T00:52:46.461Z,1001.78
2019-05-28T00:53:46.469Z,1001.77
2019-05-28T00:54:46.435Z,1001.82
2019-05-28T00:55:46.422Z,1001.84
2019-05-28T00:56:46.425Z,1001.76
2019-05-28T00:57:46.412Z,1001.87
2019-05-28T00:58:46.475Z,1001.83
2019-05-28T00:59:46.379Z,1001.84
2019-05-28T01:00:46.367Z,1001.81
2019-05-28T01:01:46.357Z,1001.83
2019-05-28T01:02:46.341Z,1001.80
2019-05-28T01:03:46.386Z,1001.78
2019-05-28T01:04:46.335Z,1001.82
2019-05-28T01:05:46.316Z,1001.74
2019-05-28T01:06:46.320Z,1001.74
2019-05-28T01:07:46.325Z,1001.74
2019-05-28T01:08:46.304Z,1001.73
2019-05-28T01:09:46.282Z,1001.74
2019-05-28T01:10:46.256Z,1001.69
2019-05-28T01:11:46.255Z,1001.69
2019-05-28T01:12:46.249Z,1001.69
2019-05-28T01:13:46.641Z,1001.64
2019-05-28T01:14:46.223Z,1001.64
2019-05-28T01:15:46.219Z,1001.68
2019-05-28T01:16:46.197Z,1001.68
2019-05-28T01:17:46.192Z,1001.71
2019-05-28T01:18:46.203Z,1001.67
2019-05-28T01:19:46.172Z,1001.68
2019-05-28T01:20:46.162Z,1001.69
2019-05-28T01:21:46.139Z,1001.70
2019-05-28T01:22:46.143Z,1001.65
2019-05-28T01:23:46.299Z,1001.64
2019-05-28T01:24:46.113Z,1001.62
2019-05-28T01:25:46.102Z,1001.62
2019-05-28T01:26:46.089Z,1001.58
2019-05-28T01:27:46.078Z,1001.59
2019-05-28T01:28:46.095Z,1001.63
2019-05-28T01:29:46.061Z,1001.62
2019-05-28T01:30:55.976Z,1001.63
2019-05-28T01:31:47.033Z,1001.61
2019-05-28T01:32:46.043Z,1001.64
2019-05-28T01:33:46.041Z,1001.61
2019-05-28T01:34:46.006Z,1001.61
2019-05-28T01:35:45.999Z,1001.60
2019-05-28T01:36:45.980Z,1001.58
2019-05-28T01:37:45.978Z,1001.63
2019-05-28T01:38:45.987Z,1001.58
2019-05-28T01:39:45.960Z,1001.58
2019-05-28T01:40:45.949Z,1001.60
2019-05-28T01:41:45.936Z,1001.64
2019-05-28T01:42:45.913Z,1001.56
2019-05-28T01:43:45.925Z,1001.58
2019-05-28T01:44:45.923Z,1001.56
2019-05-28T01:45:45.899Z,1001.59
2019-05-28T01:46:45.882Z,1001.49
2019-05-28T01:47:45.904Z,1001.54
2019-05-28T01:48:45.863Z,1001.58
2019-05-28T01:49:47.906Z,1001.56
2019-05-28T01:50:45.831Z,1001.54
2019-05-28T01:51:45.822Z,1001.57
2019-05-28T01:52:45.807Z,1001.56
2019-05-28T01:53:47.908Z,1001.58
2019-05-28T01:54:47.641Z,1001.52
2019-05-28T01:55:45.785Z,1001.61
2019-05-28T01:56:45.773Z,1001.56
2019-05-28T01:57:45.753Z,1001.58
2019-05-28T01:58:45.750Z,1001.59
2019-05-28T01:59:45.767Z,1001.54
2019-05-28T02:00:45.746Z,1001.64
2019-05-28T02:01:45.720Z,1001.62
2019-05-28T02:02:45.717Z,1001.56
2019-05-28T02:03:45.691Z,1001.53
2019-05-28T02:04:45.714Z,1001.53
2019-05-28T02:05:45.673Z,1001.54
2019-05-28T02:06:45.674Z,1001.51
2019-05-28T02:07:45.655Z,1001.53
2019-05-28T02:08:45.647Z,1001.54
2019-05-28T02:09:45.662Z,1001.62
2019-05-28T02:10:46.136Z,1001.57
2019-05-28T02:11:45.611Z,1001.56
2019-05-28T02:12:45.606Z,1001.57
2019-05-28T02:13:45.580Z,1001.61
2019-05-28T02:14:53.864Z,1001.57
2019-05-28T02:15:45.567Z,1001.64
2019-05-28T02:16:53.695Z,1001.63
2019-05-28T02:17:45.548Z,1001.59
2019-05-28T02:18:45.546Z,1001.63
2019-05-28T02:19:45.552Z,1001.61
2019-05-28T02:20:45.506Z,1001.60
2019-05-28T02:21:45.502Z,1001.59
2019-05-28T02:22:45.483Z,1001.61
2019-05-28T02:23:45.492Z,1001.64
2019-05-28T02:24:45.607Z,1001.67
2019-05-28T02:25:45.459Z,1001.71
2019-05-28T02:26:45.449Z,1001.71
2019-05-28T02:27:45.440Z,1001.68
2019-05-28T02:28:45.422Z,1001.68
2019-05-28T02:29:45.433Z,1001.67
2019-05-28T02:30:45.428Z,1001.69
2019-05-28T02:31:45.399Z,1001.65
2019-05-28T02:32:45.380Z,1001.60
2019-05-28T02:33:45.376Z,1001.66
2019-05-28T02:34:45.390Z,1001.61
2019-05-28T02:35:45.365Z,1001.60
2019-05-28T02:36:45.341Z,1001.61
2019-05-28T02:37:45.322Z,1001.57
2019-05-28T02:38:45.316Z,1001.61
2019-05-28T02:39:45.331Z,1001.63
2019-05-28T02:40:45.326Z,1001.67
2019-05-28T02:41:45.299Z,1001.64
2019-05-28T02:42:45.280Z,1001.68
2019-05-28T02:43:45.261Z,1001.73
2019-05-28T02:44:45.258Z,1001.68
2019-05-28T02:45:45.301Z,1001.67
2019-05-28T02:46:45.232Z,1001.67
2019-05-28T02:47:45.229Z,1001.67
2019-05-28T02:48:45.206Z,1001.68
2019-05-28T02:49:45.197Z,1001.67
2019-05-28T02:50:45.206Z,1001.62
2019-05-28T02:51:45.180Z,1001.65
2019-05-28T02:52:54.244Z,1001.67
2019-05-28T02:53:45.165Z,1001.64
2019-05-28T02:54:45.150Z,1001.63
2019-05-28T02:55:45.152Z,1001.63
2019-05-28T02:56:45.144Z,1001.58
2019-05-28T02:57:45.112Z,1001.64
2019-05-28T02:58:45.102Z,1001.65
2019-05-28T02:59:45.097Z,1001.65
2019-05-28T03:00:45.101Z,1001.74
2019-05-28T03:01:45.183Z,1001.69
2019-05-28T03:02:45.070Z,1001.65
2019-05-28T03:03:45.053Z,1001.71
2019-05-28T03:05:46.205Z,1001.69
2019-05-28T03:07:06.025Z,1001.64
2019-05-28T03:07:45.006Z,1001.66
2019-05-28T03:08:44.998Z,1001.64
2019-05-28T03:09:44.992Z,1001.67
2019-05-28T03:11:03.587Z,1001.62
2019-05-28T03:11:45.958Z,1001.65
2019-05-28T03:12:44.955Z,1001.66
2019-05-28T03:13:44.946Z,1001.64
2019-05-28T03:14:44.929Z,1001.66
2019-05-28T03:15:44.965Z,1001.66
2019-05-28T03:16:44.905Z,1001.64
2019-05-28T03:17:44.897Z,1001.69
2019-05-28T03:18:44.883Z,1001.66
2019-05-28T03:19:44.884Z,1001.65
2019-05-28T03:20:44.894Z,1001.67
2019-05-28T03:21:44.858Z,1001.66
2019-05-28T03:22:44.840Z,1001.65
2019-05-28T03:23:44.852Z,1001.70
2019-05-28T03:24:44.817Z,1001.68
2019-05-28T03:25:44.938Z,1001.67
2019-05-28T03:26:44.804Z,1001.67
2019-05-28T03:27:44.810Z,1001.66
2019-05-28T03:28:44.780Z,1001.69
2019-05-28T03:29:44.771Z,1001.68
2019-05-28T03:30:44.780Z,1001.74
2019-05-28T03:32:05.894Z,1001.75
2019-05-28T03:32:45.736Z,1001.70
2019-05-28T03:33:44.771Z,1001.74
2019-05-28T03:34:44.720Z,1001.71
2019-05-28T03:35:44.834Z,1001.74
2019-05-28T03:36:44.699Z,1001.72
2019-05-28T03:37:44.710Z,1001.70
2019-05-28T03:38:44.672Z,1001.65
2019-05-28T03:39:44.656Z,1001.71
2019-05-28T03:40:44.656Z,1001.69
2019-05-28T03:41:44.666Z,1001.65
2019-05-28T03:42:44.640Z,1001.66
2019-05-28T03:43:44.611Z,1001.63
2019-05-28T03:44:44.614Z,1001.63
2019-05-28T03:45:44.615Z,1001.58
2019-05-28T03:46:44.612Z,1001.65
2019-05-28T03:47:44.571Z,1001.56
2019-05-28T03:48:44.580Z,1001.60
2019-05-28T03:49:44.553Z,1001.62
2019-05-28T03:50:44.550Z,1001.62
2019-05-28T03:51:44.586Z,1001.55
2019-05-28T03:52:44.524Z,1001.59
2019-05-28T03:53:44.510Z,1001.59
2019-05-28T03:54:44.508Z,1001.60
2019-05-28T03:55:44.496Z,1001.62
2019-05-28T03:56:44.501Z,1001.62
2019-05-28T03:57:44.473Z,1001.64
2019-05-28T03:58:44.471Z,1001.67
2019-05-28T03:59:44.444Z,1001.63
2019-05-28T04:00:44.448Z,1001.65
2019-05-28T04:01:44.450Z,1001.60
2019-05-28T04:02:44.426Z,1001.64
2019-05-28T04:03:44.403Z,1001.66
2019-05-28T04:04:44.402Z,1001.66
2019-05-28T04:05:44.386Z,1001.70
2019-05-28T04:06:44.392Z,1001.67
2019-05-28T04:07:44.360Z,1001.62
2019-05-28T04:08:44.345Z,1001.66
2019-05-28T04:09:44.334Z,1001.66
2019-05-28T04:10:44.324Z,1001.67
2019-05-28T04:11:45.371Z,1001.68
2019-05-28T04:12:44.304Z,1001.68
2019-05-28T04:13:44.298Z,1001.71
2019-05-28T04:14:44.284Z,1001.70
2019-05-28T04:15:44.273Z,1001.68
2019-05-28T04:16:44.292Z,1001.71
2019-05-28T04:17:44.253Z,1001.63
2019-05-28T04:18:44.240Z,1001.66
2019-05-28T04:19:44.230Z,1001.66
2019-05-28T04:20:44.220Z,1001.70
2019-05-28T04:21:44.235Z,1001.72
2019-05-28T04:22:44.198Z,1001.69
2019-05-28T04:23:44.197Z,1001.72
2019-05-28T04:24:44.179Z,1001.72
2019-05-28T04:25:44.170Z,1001.71
2019-05-28T04:26:44.178Z,1001.71
2019-05-28T04:27:44.226Z,1001.73
2019-05-28T04:28:44.141Z,1001.71
2019-05-28T04:29:44.130Z,1001.76
2019-05-28T04:30:44.119Z,1001.74
2019-05-28T04:31:44.121Z,1001.75
2019-05-28T04:32:44.089Z,1001.76
2019-05-28T04:33:44.080Z,1001.75
2019-05-28T04:34:44.069Z,1001.76
2019-05-28T04:35:44.067Z,1001.77
2019-05-28T04:36:44.088Z,1001.78
2019-05-28T04:37:44.050Z,1001.78
2019-05-28T04:38:44.024Z,1001.82
2019-05-28T04:39:44.008Z,1001.78
2019-05-28T04:40:44.010Z,1001.86
2019-05-28T04:41:44.018Z,1001.83
2019-05-28T04:42:44.020Z,1001.77
2019-05-28T04:43:43.968Z,1001.76
2019-05-28T04:44:43.971Z,1001.80
2019-05-28T04:45:43.974Z,1001.77
2019-05-28T04:46:43.946Z,1001.81
2019-05-28T04:47:43.958Z,1001.76
2019-05-28T04:48:43.914Z,1001.74
2019-05-28T04:49:43.911Z,1001.73
2019-05-28T04:50:43.892Z,1001.72
2019-05-28T04:51:43.888Z,1001.74
2019-05-28T04:52:43.920Z,1001.71
2019-05-28T04:53:43.894Z,1001.74
2019-05-28T04:54:43.902Z,1001.76
2019-05-28T04:55:43.838Z,1001.74
2019-05-28T04:56:43.842Z,1001.73
2019-05-28T04:57:43.861Z,1001.69
2019-05-28T04:58:43.820Z,1001.69
2019-05-28T04:59:43.822Z,1001.69
2019-05-28T05:00:43.790Z,1001.69
2019-05-28T05:01:43.787Z,1001.73
2019-05-28T05:02:58.704Z,1001.70
2019-05-28T05:03:44.762Z,1001.67
2019-05-28T05:04:43.775Z,1001.70
2019-05-28T05:05:43.732Z,1001.69
2019-05-28T05:06:43.721Z,1001.68
2019-05-28T05:07:43.795Z,1001.69
2019-05-28T05:08:43.718Z,1001.76
2019-05-28T05:09:43.706Z,1001.67
2019-05-28T05:10:43.699Z,1001.70
2019-05-28T05:11:43.674Z,1001.66
2019-05-28T05:12:43.678Z,1001.70
2019-05-28T05:13:43.650Z,1001.70
2019-05-28T05:14:43.640Z,1001.74
2019-05-28T05:15:46.972Z,1001.75
2019-05-28T05:16:43.633Z,1001.69
2019-05-28T05:17:43.630Z,1001.74
2019-05-28T05:18:43.595Z,1001.75
2019-05-28T05:19:43.583Z,1001.72
2019-05-28T05:20:43.575Z,1001.72
2019-05-28T05:21:43.570Z,1001.70
2019-05-28T05:22:43.582Z,1001.70
2019-05-28T05:23:43.540Z,1001.70
2019-05-28T05:24:43.536Z,1001.70
2019-05-28T05:25:43.516Z,1001.69
2019-05-28T05:26:43.524Z,1001.66
2019-05-28T05:27:43.574Z,1001.72
2019-05-28T05:28:43.488Z,1001.67
2019-05-28T05:29:43.477Z,1001.68
2019-05-28T05:30:43.466Z,1001.69
2019-05-28T05:31:43.465Z,1001.75
2019-05-28T05:32:43.454Z,1001.77
2019-05-28T05:33:43.461Z,1001.76
2019-05-28T05:34:43.516Z,1001.76
2019-05-28T05:35:43.407Z,1001.77
2019-05-28T05:36:43.396Z,1001.78
2019-05-28T05:37:43.416Z,1001.77
2019-05-28T05:38:43.412Z,1001.78
2019-05-28T05:39:43.380Z,1001.79
2019-05-28T05:40:43.368Z,1001.76
2019-05-28T05:41:43.344Z,1001.75
2019-05-28T05:42:43.349Z,1001.80
2019-05-28T05:43:43.360Z,1001.78
2019-05-28T05:44:43.334Z,1001.82
2019-05-28T05:45:43.322Z,1001.79
2019-05-28T05:46:43.293Z,1001.82
2019-05-28T05:47:43.308Z,1001.81
2019-05-28T05:48:43.308Z,1001.83
2019-05-28T05:49:43.260Z,1001.83
2019-05-28T05:50:45.304Z,1001.87
2019-05-28T05:51:43.236Z,1001.82
2019-05-28T05:52:43.247Z,1001.87
2019-05-28T05:53:43.219Z,1001.88
2019-05-28T05:54:43.228Z,1001.82
2019-05-28T05:55:43.204Z,1001.78
2019-05-28T05:56:43.198Z,1001.75
2019-05-28T05:57:43.214Z,1001.80
2019-05-28T05:58:43.182Z,1001.81
2019-05-28T05:59:43.152Z,1001.84
2019-05-28T06:00:43.144Z,1001.85
2019-05-28T06:01:43.139Z,1001.85
2019-05-28T06:02:43.155Z,1001.91
2019-05-28T06:03:43.154Z,1001.85
2019-05-28T06:04:43.108Z,1001.90
2019-05-28T06:05:43.095Z,1001.94
2019-05-28T06:06:43.077Z,1001.87
2019-05-28T06:07:43.088Z,1001.92
2019-05-28T06:08:43.087Z,1001.93
2019-05-28T06:09:43.047Z,1001.96
2019-05-28T06:10:43.035Z,1001.98
2019-05-28T06:11:43.045Z,1002.01
2019-05-28T06:12:43.026Z,1001.99
2019-05-28T06:13:43.028Z,1002.01
2019-05-28T06:14:43.000Z,1002.01
2019-05-28T06:15:43.016Z,1001.98
2019-05-28T06:16:42.978Z,1001.98
2019-05-28T06:17:42.991Z,1001.94
2019-05-28T06:18:43.066Z,1001.97
2019-05-28T06:19:42.951Z,1001.96
2019-05-28T06:20:42.931Z,1001.95
2019-05-28T06:21:42.918Z,1001.95
2019-05-28T06:22:42.905Z,1001.99
2019-05-28T06:23:42.951Z,1001.93
2019-05-28T06:24:42.897Z,1001.94
2019-05-28T06:25:42.891Z,1001.95
2019-05-28T06:26:42.870Z,1001.99
2019-05-28T06:27:42.852Z,1001.96
2019-05-28T06:28:42.881Z,1001.97
2019-05-28T06:29:42.831Z,1002.04
2019-05-28T06:30:42.889Z,1002.01
2019-05-28T06:31:42.811Z,1001.96
2019-05-28T06:32:42.797Z,1001.95
2019-05-28T06:33:55.775Z,1001.94
2019-05-28T06:34:43.787Z,1001.94
2019-05-28T06:35:42.771Z,1001.92
2019-05-28T06:36:42.764Z,1001.92
2019-05-28T06:37:42.742Z,1001.92
2019-05-28T06:38:42.773Z,1001.94
2019-05-28T06:39:42.729Z,1001.89
2019-05-28T06:40:42.741Z,1001.89
2019-05-28T06:41:42.709Z,1001.88
2019-05-28T06:42:42.701Z,1001.91
2019-05-28T06:43:42.715Z,1001.93
2019-05-28T06:44:42.748Z,1001.89
2019-05-28T06:45:42.675Z,1001.84
2019-05-28T06:46:42.649Z,1001.85
2019-05-28T06:47:45.426Z,1001.86
2019-05-28T06:48:42.653Z,1001.89
2019-05-28T06:49:42.615Z,1001.88
2019-05-28T06:50:42.619Z,1001.91
2019-05-28T06:51:42.594Z,1001.89
2019-05-28T06:52:42.594Z,1001.89
2019-05-28T06:53:42.636Z,1001.93
2019-05-28T06:54:42.564Z,1001.91
2019-05-28T06:55:42.552Z,1001.94
2019-05-28T06:56:42.550Z,1001.97
2019-05-28T06:57:42.538Z,1001.94
2019-05-28T06:58:42.557Z,1001.93
2019-05-28T06:59:42.526Z,1001.98
2019-05-28T07:00:42.497Z,1001.97
2019-05-28T07:01:43.314Z,1002.02
2019-05-28T07:02:42.484Z,1002.02
2019-05-28T07:03:42.486Z,1002.06
2019-05-28T07:04:42.461Z,1002.06
2019-05-28T07:05:42.458Z,1002.08
2019-05-28T07:06:42.438Z,1002.12
2019-05-28T07:07:42.440Z,1002.17
2019-05-28T07:08:42.448Z,1002.13
2019-05-28T07:09:42.433Z,1002.19
2019-05-28T07:10:56.437Z,1002.17
2019-05-28T07:11:43.376Z,1002.19
2019-05-28T07:12:42.373Z,1002.12
2019-05-28T07:13:42.382Z,1002.18
2019-05-28T07:14:42.367Z,1002.12
2019-05-28T07:15:42.362Z,1002.12
2019-05-28T07:16:52.757Z,1002.20
2019-05-28T07:17:43.325Z,1002.16
2019-05-28T07:18:42.343Z,1002.14
2019-05-28T07:19:42.301Z,1002.21
2019-05-28T07:20:42.285Z,1002.16
2019-05-28T07:21:42.273Z,1002.23
2019-05-28T07:22:42.275Z,1002.19
2019-05-28T07:23:42.274Z,1002.17
2019-05-28T07:24:42.242Z,1002.18
2019-05-28T07:25:42.233Z,1002.20
2019-05-28T07:26:42.233Z,1002.22
2019-05-28T07:27:42.825Z,1002.27
2019-05-28T07:28:42.250Z,1002.27
2019-05-28T07:29:42.194Z,1002.26
2019-05-28T07:30:42.189Z,1002.28
2019-05-28T07:31:42.169Z,1002.23
2019-05-28T07:32:42.158Z,1002.24
2019-05-28T07:33:42.151Z,1002.22
2019-05-28T07:34:42.162Z,1002.25
2019-05-28T07:35:45.848Z,1002.28
2019-05-28T07:36:42.193Z,1002.32
2019-05-28T07:37:42.111Z,1002.23
2019-05-28T07:38:42.109Z,1002.26
2019-05-28T07:39:42.105Z,1002.27
2019-05-28T07:40:42.089Z,1002.33
2019-05-28T07:41:42.061Z,1002.28
2019-05-28T07:42:42.043Z,1002.26
2019-05-28T07:43:42.041Z,1002.29
2019-05-28T07:44:42.048Z,1002.31
2019-05-28T07:45:42.019Z,1002.33
2019-05-28T07:46:42.019Z,1002.27
2019-05-28T07:47:41.994Z,1002.33
2019-05-28T07:48:41.987Z,1002.29
2019-05-28T07:49:41.995Z,1002.30
2019-05-28T07:50:41.957Z,1002.30
2019-05-28T07:51:41.956Z,1002.32
2019-05-28T07:52:41.942Z,1002.33
2019-05-28T07:53:41.943Z,1002.38
2019-05-28T07:54:41.951Z,1002.36
2019-05-28T07:55:41.907Z,1002.41
2019-05-28T07:56:41.898Z,1002.35
2019-05-28T07:57:41.897Z,1002.34
2019-05-28T07:58:41.874Z,1002.28
2019-05-28T07:59:41.895Z,1002.25
2019-05-28T08:00:41.883Z,1002.24
2019-05-28T08:01:41.850Z,1002.29
2019-05-28T08:02:41.839Z,1002.29
2019-05-28T08:03:41.865Z,1002.31
2019-05-28T08:04:47.106Z,1002.29
2019-05-28T08:05:42.806Z,1002.28
2019-05-28T08:06:54.395Z,1002.29
2019-05-28T08:07:42.787Z,1002.30
2019-05-28T08:08:41.773Z,1002.33
2019-05-28T08:09:41.778Z,1002.30
2019-05-28T08:10:41.771Z,1002.34
2019-05-28T08:11:41.747Z,1002.33
2019-05-28T08:12:41.733Z,1002.35
2019-05-28T08:13:41.726Z,1002.35
2019-05-28T08:14:41.732Z,1002.32
2019-05-28T08:15:41.700Z,1002.35
2019-05-28T08:16:52.278Z,1002.32
2019-05-28T08:17:42.673Z,1002.38
2019-05-28T08:18:42.351Z,1002.34
2019-05-28T08:19:41.676Z,1002.38
2019-05-28T08:20:41.655Z,1002.40
2019-05-28T08:21:41.657Z,1002.38
2019-05-28T08:22:43.215Z,1002.37
2019-05-28T08:23:41.605Z,1002.38
2019-05-28T08:24:41.621Z,1002.38
2019-05-28T08:25:47.274Z,1002.41
2019-05-28T08:26:42.578Z,1002.43
2019-05-28T08:27:41.568Z,1002.39
2019-05-28T08:28:41.553Z,1002.39
2019-05-28T08:29:45.401Z,1002.39
2019-05-28T08:30:41.537Z,1002.43
2019-05-28T08:31:41.529Z,1002.43
2019-05-28T08:32:41.516Z,1002.41
2019-05-28T08:33:41.523Z,1002.44
2019-05-28T08:34:41.657Z,1002.42
2019-05-28T08:35:41.484Z,1002.40
2019-05-28T08:36:41.472Z,1002.37
2019-05-28T08:37:41.464Z,1002.41
2019-05-28T08:38:41.456Z,1002.44
2019-05-28T08:39:41.478Z,1002.44
2019-05-28T08:40:41.435Z,1002.49
2019-05-28T08:41:41.423Z,1002.47
2019-05-28T08:42:41.821Z,1002.52
2019-05-28T08:43:41.407Z,1002.51
2019-05-28T08:44:41.413Z,1002.57
2019-05-28T08:45:42.774Z,1002.55
2019-05-28T08:46:41.369Z,1002.55
2019-05-28T08:47:41.358Z,1002.57
2019-05-28T08:48:41.348Z,1002.61
2019-05-28T08:49:41.341Z,1002.61
2019-05-28T08:50:41.348Z,1002.66
2019-05-28T08:51:41.308Z,1002.68
2019-05-28T08:52:41.303Z,1002.67
2019-05-28T08:53:41.439Z,1002.64
2019-05-28T08:54:41.289Z,1002.62
2019-05-28T08:55:41.294Z,1002.58
2019-05-28T08:56:41.268Z,1002.62
2019-05-28T08:57:41.274Z,1002.59
2019-05-28T08:58:41.241Z,1002.61
2019-05-28T08:59:41.231Z,1002.61
2019-05-28T09:00:41.247Z,1002.59
2019-05-28T09:01:41.237Z,1002.55
2019-05-28T09:02:41.243Z,1002.63
2019-05-28T09:03:41.185Z,1002.62
2019-05-28T09:04:41.185Z,1002.59
2019-05-28T09:05:41.174Z,1002.61
2019-05-28T09:06:41.185Z,1002.62
2019-05-28T09:07:41.145Z,1002.60
2019-05-28T09:08:42.187Z,1002.58
2019-05-28T09:09:41.127Z,1002.58
2019-05-28T09:10:41.136Z,1002.60
2019-05-28T09:11:41.121Z,1002.70
2019-05-28T09:12:42.487Z,1002.70
2019-05-28T09:13:41.083Z,1002.72
2019-05-28T09:14:55.930Z,1002.69
2019-05-28T09:15:42.834Z,1002.72
2019-05-28T09:16:41.317Z,1002.75
2019-05-28T09:17:41.057Z,1002.73
2019-05-28T09:18:41.020Z,1002.73
2019-05-28T09:19:41.017Z,1002.76
2019-05-28T09:20:41.131Z,1002.78
2019-05-28T09:21:40.997Z,1002.78
2019-05-28T09:22:40.980Z,1002.78
2019-05-28T09:23:40.990Z,1002.79
2019-05-28T09:24:40.993Z,1002.80
2019-05-28T09:25:41.641Z,1002.78
2019-05-28T09:26:41.039Z,1002.83
2019-05-28T09:27:40.985Z,1002.84
2019-05-28T09:28:40.920Z,1002.82
2019-05-28T09:29:40.937Z,1002.83
2019-05-28T09:30:40.896Z,1002.83
2019-05-28T09:31:40.903Z,1002.84
2019-05-28T09:32:40.920Z,1002.90
2019-05-28T09:33:40.863Z,1002.84
2019-05-28T09:34:40.865Z,1002.81
2019-05-28T09:35:46.350Z,1002.86
2019-05-28T09:36:41.827Z,1002.88
2019-05-28T09:37:40.847Z,1002.87
2019-05-28T09:38:40.809Z,1002.87
2019-05-28T09:39:40.801Z,1002.86
2019-05-28T09:40:50.117Z,1002.91
2019-05-28T09:41:41.779Z,1002.79
2019-05-28T09:42:40.778Z,1002.83
2019-05-28T09:43:40.762Z,1002.82
2019-05-28T09:44:40.746Z,1002.88
2019-05-28T09:45:40.761Z,1002.83
2019-05-28T09:46:40.738Z,1002.90
2019-05-28T09:47:40.720Z,1002.84
2019-05-28T09:48:40.705Z,1002.80
2019-05-28T09:49:40.696Z,1002.85
2019-05-28T09:50:40.724Z,1002.89
2019-05-28T09:51:40.681Z,1002.87
2019-05-28T09:52:53.622Z,1002.82
2019-05-28T09:53:41.647Z,1002.82
2019-05-28T09:54:40.649Z,1002.79
2019-05-28T09:55:40.661Z,1002.79
2019-05-28T09:56:40.679Z,1002.79
2019-05-28T09:57:47.304Z,1002.78
2019-05-28T09:58:41.606Z,1002.76
2019-05-28T09:59:48.435Z,1002.82
2019-05-28T10:00:56.627Z,1002.77
2019-05-28T10:01:41.570Z,1002.79
2019-05-28T10:02:40.553Z,1002.80
2019-05-28T10:03:40.551Z,1002.78
2019-05-28T10:04:49.112Z,1002.80
2019-05-28T10:05:55.114Z,1002.73
2019-05-28T10:06:41.856Z,1002.79
2019-05-28T10:07:40.499Z,1002.82
2019-05-28T10:08:40.499Z,1002.73
2019-05-28T10:09:40.530Z,1002.76
2019-05-28T10:10:40.495Z,1002.78
2019-05-28T10:11:40.460Z,1002.77
2019-05-28T10:12:40.449Z,1002.78
2019-05-28T10:13:41.833Z,1002.82
2019-05-28T10:14:43.672Z,1002.90
2019-05-28T10:15:40.434Z,1002.82
2019-05-28T10:16:40.433Z,1002.81
2019-05-28T10:17:40.405Z,1002.86
2019-05-28T10:18:40.383Z,1002.82
2019-05-28T10:19:40.381Z,1002.82
2019-05-28T10:20:40.384Z,1002.84
2019-05-28T10:21:40.370Z,1002.86
2019-05-28T10:22:40.364Z,1002.73
2019-05-28T10:23:40.340Z,1002.87
2019-05-28T10:24:40.319Z,1002.86
2019-05-28T10:25:40.356Z,1002.83
2019-05-28T10:26:40.295Z,1002.85
2019-05-28T10:27:56.656Z,1002.84
2019-05-28T10:28:41.283Z,1002.80
2019-05-28T10:29:40.295Z,1002.84
2019-05-28T10:30:40.268Z,1002.81
2019-05-28T10:31:40.271Z,1002.89
2019-05-28T10:32:40.241Z,1002.83
2019-05-28T10:33:40.245Z,1002.85
2019-05-28T10:34:40.221Z,1002.83
2019-05-28T10:35:40.217Z,1002.82
2019-05-28T10:36:40.236Z,1002.87
2019-05-28T10:37:40.197Z,1002.87
2019-05-28T10:38:40.176Z,1002.82
2019-05-28T10:39:40.175Z,1002.84
2019-05-28T10:40:40.161Z,1002.81
2019-05-28T10:41:40.174Z,1002.74
2019-05-28T10:42:40.136Z,1002.84
2019-05-28T10:43:40.133Z,1002.85
2019-05-28T10:44:40.120Z,1002.86
2019-05-28T10:45:40.271Z,1002.88
2019-05-28T10:46:40.162Z,1002.85
2019-05-28T10:47:40.093Z,1002.86
2019-05-28T10:48:40.074Z,1002.85
2019-05-28T10:49:40.085Z,1002.90
2019-05-28T10:50:40.057Z,1002.89
2019-05-28T10:51:40.075Z,1002.84
2019-05-28T10:52:40.038Z,1002.80
2019-05-28T10:53:40.024Z,1002.86
2019-05-28T10:54:40.014Z,1002.88
2019-05-28T10:55:39.997Z,1002.88
2019-05-28T10:56:40.015Z,1002.85
2019-05-28T10:57:39.979Z,1002.90
2019-05-28T10:58:39.979Z,1002.88
2019-05-28T10:59:39.949Z,1002.93
2019-05-28T11:00:39.941Z,1002.91
2019-05-28T11:01:39.963Z,1002.91
2019-05-28T11:02:39.935Z,1002.91
2019-05-28T11:03:39.913Z,1003.00
2019-05-28T11:04:39.922Z,1002.89
2019-05-28T11:05:39.890Z,1003.01
2019-05-28T11:06:51.298Z,1002.91
2019-05-28T11:07:40.889Z,1002.94
2019-05-28T11:08:39.869Z,1002.91
2019-05-28T11:09:39.852Z,1002.89
2019-05-28T11:10:39.885Z,1002.91
2019-05-28T11:11:39.826Z,1002.89
2019-05-28T11:12:39.847Z,1002.90
2019-05-28T11:13:52.695Z,1002.91
2019-05-28T11:14:40.799Z,1002.84
2019-05-28T11:15:39.793Z,1002.87
2019-05-28T11:16:39.780Z,1002.82
2019-05-28T11:17:39.792Z,1002.90
2019-05-28T11:18:39.745Z,1002.88
2019-05-28T11:19:39.748Z,1002.81
2019-05-28T11:20:39.729Z,1002.82
2019-05-28T11:21:39.723Z,1002.81
2019-05-28T11:22:39.751Z,1002.80
2019-05-28T11:23:39.707Z,1002.85
2019-05-28T11:24:39.688Z,1002.84
2019-05-28T11:25:40.008Z,1002.79
2019-05-28T11:26:39.671Z,1002.84
2019-05-28T11:27:39.673Z,1002.79
2019-05-28T11:28:39.644Z,1002.76
2019-05-28T11:29:39.634Z,1002.80
2019-05-28T11:30:39.629Z,1002.79
2019-05-28T11:31:39.622Z,1002.72
2019-05-28T11:32:39.628Z,1002.77
2019-05-28T11:33:39.601Z,1002.75
2019-05-28T11:34:39.585Z,1002.82
2019-05-28T11:35:39.568Z,1002.80
2019-05-28T11:36:39.574Z,1002.79
2019-05-28T11:37:40.492Z,1002.75
2019-05-28T11:38:39.538Z,1002.81
2019-05-28T11:39:39.536Z,1002.80
2019-05-28T11:40:39.550Z,1002.81
2019-05-28T11:41:42.541Z,1002.84
2019-05-28T11:42:39.499Z,1002.86
2019-05-28T11:43:39.512Z,1002.81
2019-05-28T11:44:39.489Z,1002.82
2019-05-28T11:45:39.482Z,1002.86
2019-05-28T11:46:39.467Z,1002.80
2019-05-28T11:47:39.481Z,1002.85
2019-05-28T11:48:39.441Z,1002.91
2019-05-28T11:49:39.418Z,1002.88
2019-05-28T11:50:39.435Z,1002.97
2019-05-28T11:51:39.421Z,1002.91
2019-05-28T11:52:39.439Z,1002.88
2019-05-28T11:53:39.382Z,1002.91
2019-05-28T11:54:39.403Z,1002.97
2019-05-28T11:55:39.384Z,1002.97
2019-05-28T11:56:39.353Z,1002.97
2019-05-28T11:57:39.373Z,1003.01
2019-05-28T11:58:39.332Z,1002.96
2019-05-28T11:59:39.320Z,1003.00
2019-05-28T12:00:39.339Z,1003.00
2019-05-28T12:01:39.297Z,1002.93
2019-05-28T12:02:39.300Z,1002.92
2019-05-28T12:03:39.374Z,1002.92
2019-05-28T12:04:39.337Z,1003.05
2019-05-28T12:05:39.253Z,1003.01